createdAt,value
2019-04-28T00:02:17.399Z,6.95
2019-04-28T00:04:46.751Z,6.97
2019-04-28T00:07:16.113Z,6.78
2019-04-28T00:09:45.468Z,7.28
2019-04-28T00:12:14.837Z,7.08
2019-04-28T00:14:44.398Z,7.30
2019-04-28T00:17:13.804Z,7.30
2019-04-28T00:19:43.230Z,7.87
2019-04-28T00:22:23.322Z,7.50
2019-04-28T00:25:03.239Z,8.00
2019-04-28T00:27:32.668Z,8.55
2019-04-28T00:30:02.265Z,8.13
2019-04-28T00:32:32.646Z,9.28
2019-04-28T00:35:02.474Z,8.40
2019-04-28T00:37:32.957Z,7.72
2019-04-28T00:40:02.389Z,9.05
2019-04-28T00:42:31.764Z,8.13
2019-04-28T00:45:01.881Z,7.45
2019-04-28T00:47:31.324Z,7.70
2019-04-28T00:50:02.133Z,7.58
2019-04-28T00:52:32.089Z,7.30
2019-04-28T00:55:01.600Z,6.80
2019-04-28T00:57:31.145Z,6.45
2019-04-28T01:00:02.426Z,7.65
2019-04-28T01:02:35.875Z,7.28
2019-04-28T01:05:07.626Z,7.37
2019-04-28T01:07:36.967Z,7.20
2019-04-28T01:10:07.837Z,7.45
2019-04-28T01:12:37.160Z,7.75
2019-04-28T01:15:10.246Z,7.40
2019-04-28T01:17:56.553Z,7.53
2019-04-28T01:20:26.253Z,7.37
2019-04-28T01:22:55.606Z,7.25
2019-04-28T01:25:25.011Z,7.28
2019-04-28T01:27:55.335Z,7.78
2019-04-28T01:30:43.939Z,8.00
2019-04-28T01:33:29.996Z,7.90
2019-04-28T01:36:00.487Z,7.10
2019-04-28T01:38:30.298Z,7.37
2019-04-28T01:41:01.522Z,7.37
2019-04-28T01:43:32.459Z,7.37
2019-04-28T01:46:01.785Z,7.03
2019-04-28T01:48:31.488Z,7.65
2019-04-28T01:51:01.058Z,7.05
2019-04-28T01:53:30.933Z,6.67
2019-04-28T01:56:00.475Z,7.33
2019-04-28T01:58:29.849Z,7.87
2019-04-28T02:00:59.682Z,6.83
2019-04-28T02:03:30.758Z,7.58
2019-04-28T02:06:00.404Z,6.90
2019-04-28T02:08:30.320Z,7.85
2019-04-28T02:11:00.188Z,8.33
2019-04-28T02:13:30.019Z,7.25
2019-04-28T02:16:00.016Z,7.85
2019-04-28T02:18:30.070Z,7.80
2019-04-28T02:21:01.239Z,8.05
2019-04-28T02:23:32.238Z,7.67
2019-04-28T02:26:01.573Z,7.70
2019-04-28T02:28:30.966Z,7.58
2019-04-28T02:31:02.318Z,7.92
2019-04-28T02:33:31.514Z,8.23
2019-04-28T02:36:01.592Z,9.15
2019-04-28T02:38:34.070Z,8.23
2019-04-28T02:41:02.047Z,8.88
2019-04-28T02:43:31.376Z,7.95
2019-04-28T02:46:00.873Z,8.10
2019-04-28T02:48:30.969Z,8.50
2019-04-28T02:51:02.230Z,8.00
2019-04-28T02:53:33.737Z,8.08
2019-04-28T02:56:03.363Z,8.88
2019-04-28T02:58:32.723Z,7.87
2019-04-28T03:01:11.111Z,7.67
2019-04-28T03:03:33.183Z,7.30
2019-04-28T03:06:02.501Z,7.35
2019-04-28T03:08:32.367Z,6.12
2019-04-28T03:11:01.717Z,7.22
2019-04-28T03:13:31.423Z,6.60
2019-04-28T03:16:01.717Z,6.37
2019-04-28T03:18:31.906Z,7.00
2019-04-28T03:21:04.251Z,6.35
2019-04-28T03:23:32.780Z,7.20
2019-04-28T03:26:03.784Z,7.03
2019-04-28T03:31:55.358Z,6.45
2019-04-28T03:33:58.014Z,7.10
2019-04-28T03:36:27.431Z,7.50
2019-04-28T03:38:56.844Z,7.65
2019-04-28T03:41:26.179Z,7.35
2019-04-28T03:43:55.542Z,6.78
2019-04-28T03:46:26.529Z,6.08
2019-04-28T03:48:55.948Z,7.03
2019-04-28T03:51:25.314Z,7.60
2019-04-28T03:53:54.747Z,8.63
2019-04-28T03:56:24.077Z,8.33
2019-04-28T03:58:53.433Z,7.75
2019-04-28T04:01:22.789Z,10.68
2019-04-28T04:03:52.158Z,16.12
2019-04-28T04:06:22.647Z,15.75
2019-04-28T04:08:52.306Z,12.53
2019-04-28T04:11:23.309Z,10.58
2019-04-28T04:13:54.445Z,8.50
2019-04-28T04:16:34.759Z,9.65
2019-04-28T04:19:05.737Z,7.05
2019-04-28T04:21:35.085Z,6.45
2019-04-28T04:24:04.532Z,5.90
2019-04-28T04:26:33.951Z,5.97
2019-04-28T04:29:03.369Z,5.97
2019-04-28T04:31:32.827Z,6.03
2019-04-28T04:34:03.460Z,6.62
2019-04-28T04:36:33.015Z,6.30
2019-04-28T04:39:02.368Z,7.67
2019-04-28T04:41:31.826Z,6.80
2019-04-28T04:44:01.458Z,6.35
2019-04-28T04:46:31.479Z,6.20
2019-04-28T04:49:01.172Z,6.08
2019-04-28T04:51:30.941Z,7.22
2019-04-28T04:54:01.291Z,6.22
2019-04-28T04:56:30.978Z,5.47
2019-04-28T04:59:02.747Z,5.60
2019-04-28T05:01:33.090Z,5.87
2019-04-28T05:07:07.461Z,5.33
2019-04-28T05:09:36.895Z,5.80
2019-04-28T05:12:06.353Z,6.12
2019-04-28T05:14:35.850Z,7.83
2019-04-28T05:17:05.348Z,6.30
2019-04-28T05:19:34.691Z,5.33
2019-04-28T05:22:04.551Z,6.75
2019-04-28T05:24:35.537Z,6.17
2019-04-28T05:27:05.678Z,5.92
2019-04-28T05:29:35.051Z,6.35
2019-04-28T05:32:04.430Z,5.80
2019-04-28T05:34:33.843Z,6.47
2019-04-28T05:37:03.266Z,4.30
2019-04-28T05:39:32.659Z,5.80
2019-04-28T05:42:02.104Z,5.03
2019-04-28T05:44:32.055Z,4.53
2019-04-28T05:47:01.884Z,4.30
2019-04-28T05:49:42.053Z,5.08
2019-04-28T05:52:31.223Z,4.60
2019-04-28T05:55:02.219Z,4.08
2019-04-28T05:57:36.421Z,4.10
2019-04-28T06:00:10.746Z,3.67
2019-04-28T06:02:55.505Z,4.00
2019-04-28T06:05:12.817Z,3.55
2019-04-28T06:07:56.054Z,3.52
2019-04-28T06:10:25.466Z,3.65
2019-04-28T06:12:54.831Z,3.62
2019-04-28T06:15:24.270Z,3.45
2019-04-28T06:17:53.827Z,3.95
2019-04-28T06:20:23.280Z,3.90
2019-04-28T06:22:52.657Z,3.65
2019-04-28T06:25:22.135Z,3.37
2019-04-28T06:27:51.736Z,3.15
2019-04-28T06:30:21.119Z,3.50
2019-04-28T06:32:50.672Z,4.05
2019-04-28T06:35:20.103Z,5.78
2019-04-28T06:37:49.654Z,6.92
2019-04-28T06:40:19.234Z,3.65
2019-04-28T06:42:48.789Z,4.95
2019-04-28T06:45:18.389Z,3.00
2019-04-28T06:47:48.040Z,2.42
2019-04-28T06:50:17.400Z,2.30
2019-04-28T06:52:46.869Z,2.50
2019-04-28T06:55:16.402Z,1.80
2019-04-28T06:57:45.757Z,1.92
2019-04-28T07:00:15.854Z,2.20
2019-04-28T07:02:47.530Z,2.17
2019-04-28T07:05:19.821Z,1.82
2019-04-28T07:07:48.622Z,1.82
2019-04-28T07:10:21.165Z,2.30
2019-04-28T07:12:52.108Z,2.12
2019-04-28T07:15:23.280Z,2.17
2019-04-28T07:17:56.817Z,2.17
2019-04-28T07:20:36.886Z,2.30
2019-04-28T07:23:09.082Z,2.27
2019-04-28T07:25:41.282Z,2.40
2019-04-28T07:28:16.563Z,2.25
2019-04-28T07:30:47.660Z,2.25
2019-04-28T07:33:17.468Z,1.95
2019-04-28T07:35:48.323Z,1.80
2019-04-28T07:38:33.472Z,1.90
2019-04-28T07:41:08.700Z,1.50
2019-04-28T07:43:39.792Z,2.05
2019-04-28T07:46:13.944Z,2.20
2019-04-28T07:48:43.744Z,1.70
2019-04-28T07:51:22.935Z,1.80
2019-04-28T07:53:57.877Z,1.90
2019-04-28T07:56:28.689Z,2.08
2019-04-28T07:59:02.491Z,2.35
2019-04-28T08:01:41.300Z,1.90
2019-04-28T08:04:10.637Z,1.65
2019-04-28T08:06:42.948Z,1.82
2019-04-28T08:09:13.650Z,1.40
2019-04-28T08:11:45.774Z,1.23
2019-04-28T08:14:15.314Z,1.60
2019-04-28T08:16:47.724Z,1.40
2019-04-28T08:19:17.068Z,1.20
2019-04-28T08:21:52.386Z,1.75
2019-04-28T08:24:24.803Z,1.30
2019-04-28T08:26:55.998Z,1.50
2019-04-28T08:29:25.610Z,1.20
2019-04-28T08:32:02.988Z,1.90
2019-04-28T08:34:37.634Z,1.10
2019-04-28T08:37:09.454Z,1.03
2019-04-28T08:39:44.954Z,1.50
2019-04-28T08:42:21.680Z,1.17
2019-04-28T08:44:53.560Z,1.13
2019-04-28T08:47:28.307Z,1.20
2019-04-28T08:49:58.976Z,1.67
2019-04-28T08:52:36.204Z,1.70
2019-04-28T08:55:17.669Z,1.20
2019-04-28T08:57:53.739Z,1.93
2019-04-28T09:00:38.487Z,1.20
2019-04-28T09:03:04.055Z,1.30
2019-04-28T09:05:33.989Z,1.93
2019-04-28T09:08:07.282Z,1.60
2019-04-28T09:10:42.008Z,1.50
2019-04-28T09:13:12.916Z,1.30
2019-04-28T09:15:47.491Z,2.07
2019-04-28T09:18:17.822Z,1.57
2019-04-28T09:20:58.942Z,1.77
2019-04-28T09:23:31.206Z,1.30
2019-04-28T09:26:02.139Z,2.50
2019-04-28T09:28:32.882Z,2.53
2019-04-28T09:31:14.851Z,1.80
2019-04-28T09:33:59.226Z,1.30
2019-04-28T09:36:31.454Z,1.80
2019-04-28T09:42:18.143Z,2.13
2019-04-28T09:44:51.299Z,1.20
2019-04-28T09:47:38.079Z,1.23
2019-04-28T09:52:51.265Z,1.00
2019-04-28T09:55:35.125Z,1.00
2019-04-28T09:58:10.090Z,1.10
2019-04-28T10:03:37.736Z,1.23
2019-04-28T10:06:40.499Z,1.20
2019-04-28T10:08:51.916Z,1.00
2019-04-28T10:11:30.773Z,1.40
2019-04-28T10:14:03.447Z,1.10
2019-04-28T10:16:45.396Z,1.03
2019-04-28T10:19:23.535Z,1.67
2019-04-28T10:21:57.536Z,0.90
2019-04-28T10:24:36.310Z,1.10
2019-04-28T10:27:11.806Z,2.23
2019-04-28T10:29:47.585Z,1.70
2019-04-28T10:32:21.640Z,1.30
2019-04-28T10:34:55.413Z,1.50
2019-04-28T10:37:37.743Z,1.57
2019-04-28T10:40:11.542Z,0.97
2019-04-28T10:43:01.641Z,1.17
2019-04-28T10:45:36.027Z,1.40
2019-04-28T10:48:08.325Z,1.00
2019-04-28T10:50:40.312Z,0.90
2019-04-28T10:53:16.000Z,1.20
2019-04-28T10:55:53.942Z,1.00
2019-04-28T10:58:25.302Z,1.23
2019-04-28T11:00:57.789Z,1.20
2019-04-28T11:03:32.192Z,1.40
2019-04-28T11:06:03.560Z,1.30
2019-04-28T11:08:40.576Z,1.80
2019-04-28T11:11:23.230Z,1.27
2019-04-28T11:13:58.214Z,1.37
2019-04-28T11:16:32.124Z,1.10
2019-04-28T11:19:04.500Z,1.60
2019-04-28T11:21:38.854Z,1.30
2019-04-28T11:24:15.347Z,1.37
2019-04-28T11:26:50.416Z,1.27
2019-04-28T11:29:22.681Z,1.20
2019-04-28T11:31:57.680Z,1.60
2019-04-28T11:34:35.915Z,2.37
2019-04-28T11:37:17.800Z,1.80
2019-04-28T11:39:57.364Z,2.10
2019-04-28T11:42:28.311Z,2.07
2019-04-28T11:45:14.961Z,1.50
2019-04-28T11:47:50.730Z,1.10
2019-04-28T11:50:24.533Z,1.00
2019-04-28T11:55:51.070Z,2.33
2019-04-28T11:58:32.757Z,1.50
2019-04-28T12:01:13.346Z,1.30
2019-04-28T12:03:50.632Z,1.30
2019-04-28T12:06:25.174Z,1.50
2019-04-28T12:09:17.226Z,1.30
2019-04-28T12:12:04.237Z,1.30
2019-04-28T12:14:53.009Z,1.13
2019-04-28T12:17:38.991Z,1.90
2019-04-28T12:20:22.637Z,1.40
2019-04-28T12:23:11.270Z,1.10
2019-04-28T12:25:43.434Z,1.43
2019-04-28T12:28:22.327Z,1.10
2019-04-28T12:30:58.865Z,1.00
2019-04-28T12:33:44.755Z,1.30
2019-04-28T12:36:43.199Z,1.13
2019-04-28T12:38:55.657Z,1.13
2019-04-28T12:44:04.265Z,1.43
2019-04-28T12:46:38.504Z,1.20
2019-04-28T12:49:22.757Z,1.00
2019-04-28T12:57:32.233Z,1.20
2019-04-28T13:03:07.465Z,1.30
2019-04-28T13:05:44.273Z,1.47
2019-04-28T13:08:19.168Z,1.50
2019-04-28T13:10:49.030Z,1.60
2019-04-28T13:13:21.348Z,1.30
2019-04-28T13:15:57.648Z,1.20
2019-04-28T13:18:33.817Z,1.33
2019-04-28T13:21:52.227Z,1.10
2019-04-28T13:24:00.193Z,1.30
2019-04-28T13:26:28.067Z,2.60
2019-04-28T13:29:00.739Z,1.40
2019-04-28T13:31:34.440Z,1.40
2019-04-28T13:34:09.016Z,1.60
2019-04-28T13:36:45.705Z,1.20
2019-04-28T13:39:19.391Z,1.30
2019-04-28T13:44:54.166Z,1.43
2019-04-28T13:47:44.264Z,1.30
2019-04-28T13:50:15.101Z,1.27
2019-04-28T13:52:46.082Z,6.10
2019-04-28T13:55:25.762Z,1.40
2019-04-28T13:58:00.294Z,1.30
2019-04-28T14:00:39.887Z,1.20
2019-04-28T14:03:24.012Z,1.60
2019-04-28T14:06:05.143Z,1.47
2019-04-28T14:08:36.574Z,1.10
2019-04-28T14:11:07.166Z,1.10
2019-04-28T14:13:39.915Z,1.10
2019-04-28T14:16:12.137Z,6.63
2019-04-28T14:21:38.664Z,1.10
2019-04-28T14:27:10.617Z,1.10
2019-04-28T14:32:32.256Z,1.13
2019-04-28T14:35:04.773Z,1.00
2019-04-28T14:40:27.440Z,1.10
2019-04-28T14:43:17.122Z,1.33
2019-04-28T14:45:56.041Z,1.07
2019-04-28T14:48:31.091Z,1.23
2019-04-28T14:51:10.793Z,1.20
2019-04-28T14:53:56.056Z,0.90
2019-04-28T14:56:38.836Z,1.30
2019-04-28T15:02:05.713Z,1.30
2019-04-28T15:04:49.362Z,1.00
2019-04-28T15:07:45.449Z,0.80
2019-04-28T15:10:26.928Z,1.30
2019-04-28T15:13:01.939Z,1.43
2019-04-28T15:15:34.236Z,1.07
2019-04-28T15:18:09.844Z,1.20
2019-04-28T15:20:38.533Z,1.03
2019-04-28T15:23:11.929Z,1.00
2019-04-28T15:25:46.712Z,1.20
2019-04-28T15:28:25.333Z,1.10
2019-04-28T15:31:06.579Z,1.00
2019-04-28T15:33:39.438Z,1.00
2019-04-28T15:36:12.927Z,1.10
2019-04-28T15:38:48.411Z,1.20
2019-04-28T15:41:24.049Z,1.60
2019-04-28T15:43:57.460Z,1.40
2019-04-28T15:46:28.667Z,1.70
2019-04-28T15:49:00.763Z,1.40
2019-04-28T15:51:34.489Z,1.65
2019-04-28T15:54:04.311Z,1.62
2019-04-28T15:56:39.294Z,1.40
2019-04-28T15:59:15.751Z,1.43
2019-04-28T16:01:46.385Z,1.35
2019-04-28T16:04:30.875Z,1.40
2019-04-28T16:07:02.198Z,1.37
2019-04-28T16:09:36.134Z,1.25
2019-04-28T16:12:07.103Z,1.27
2019-04-28T16:14:39.278Z,1.40
2019-04-28T16:17:15.416Z,1.40
2019-04-28T16:19:48.657Z,1.13
2019-04-28T16:22:18.200Z,1.20
2019-04-28T16:24:50.090Z,1.20
2019-04-28T16:27:19.723Z,1.65
2019-04-28T16:29:53.299Z,1.60
2019-04-28T16:32:22.552Z,1.30
2019-04-28T16:34:52.330Z,1.22
2019-04-28T16:37:21.478Z,1.70
2019-04-28T16:39:51.121Z,1.37
2019-04-28T16:42:26.281Z,1.07
2019-04-28T16:44:58.029Z,1.32
2019-04-28T16:47:28.801Z,1.22
2019-04-28T16:49:58.232Z,1.37
2019-04-28T16:52:28.707Z,1.47
2019-04-28T16:55:15.814Z,3.20
2019-04-28T16:57:51.028Z,1.25
2019-04-28T17:00:34.791Z,1.40
2019-04-28T17:03:09.284Z,1.37
2019-04-28T17:05:43.774Z,1.20
2019-04-28T17:08:14.240Z,1.62
2019-04-28T17:10:49.223Z,1.40
2019-04-28T17:13:22.004Z,1.40
2019-04-28T17:15:51.538Z,1.52
2019-04-28T17:18:22.579Z,1.87
2019-04-28T17:20:55.178Z,1.65
2019-04-28T17:23:24.661Z,1.45
2019-04-28T17:25:54.288Z,1.40
2019-04-28T17:28:28.681Z,1.72
2019-04-28T17:30:57.727Z,1.30
2019-04-28T17:33:29.458Z,1.75
2019-04-28T17:35:58.682Z,1.98
2019-04-28T17:38:29.389Z,2.05
2019-04-28T17:41:00.181Z,2.52
2019-04-28T17:43:29.664Z,2.00
2019-04-28T17:45:59.285Z,2.02
2019-04-28T17:48:30.538Z,1.90
2019-04-28T17:51:03.049Z,2.40
2019-04-28T17:53:32.462Z,5.40
2019-04-28T17:56:01.932Z,8.83
2019-04-28T17:58:31.436Z,7.25
2019-04-28T18:01:02.434Z,8.35
2019-04-28T18:03:33.636Z,5.17
2019-04-28T18:06:17.543Z,2.75
2019-04-28T18:08:45.953Z,2.22
2019-04-28T18:11:17.272Z,2.37
2019-04-28T18:13:50.650Z,2.60
2019-04-28T18:16:37.839Z,3.15
2019-04-28T18:19:18.299Z,3.10
2019-04-28T18:21:47.877Z,2.92
2019-04-28T18:24:18.743Z,2.30
2019-04-28T18:26:48.219Z,2.27
2019-04-28T18:29:17.766Z,2.22
2019-04-28T18:31:54.412Z,2.45
2019-04-28T18:34:35.690Z,5.12
2019-04-28T18:37:14.614Z,4.03
2019-04-28T18:40:02.246Z,4.42
2019-04-28T18:42:33.240Z,2.37
2019-04-28T18:45:02.758Z,3.08
2019-04-28T18:47:32.100Z,4.65
2019-04-28T18:50:01.578Z,4.75
2019-04-28T18:52:31.054Z,2.98
2019-04-28T18:55:00.486Z,2.65
2019-04-28T18:57:30.070Z,2.58
2019-04-28T18:59:59.480Z,2.87
2019-04-28T19:02:36.492Z,3.10
2019-04-28T19:05:10.317Z,3.45
2019-04-28T19:07:49.148Z,3.50
2019-04-28T19:10:23.175Z,5.75
2019-04-28T19:13:00.180Z,3.90
2019-04-28T19:15:47.564Z,4.20
2019-04-28T19:18:30.743Z,3.20
2019-04-28T19:21:00.329Z,3.37
2019-04-28T19:23:29.781Z,3.30
2019-04-28T19:25:59.256Z,3.45
2019-04-28T19:28:28.709Z,3.50
2019-04-28T19:30:58.057Z,3.85
2019-04-28T19:33:27.467Z,4.70
2019-04-28T19:35:56.930Z,4.35
2019-04-28T19:38:26.379Z,4.62
2019-04-28T19:40:55.852Z,4.80
2019-04-28T19:43:25.453Z,4.25
2019-04-28T19:45:56.480Z,4.67
2019-04-28T19:48:25.903Z,3.10
2019-04-28T19:50:56.013Z,3.58
2019-04-28T19:53:25.582Z,2.65
2019-04-28T19:55:59.277Z,3.40
2019-04-28T19:58:30.298Z,3.42
2019-04-28T20:01:04.243Z,3.00
2019-04-28T20:03:33.689Z,2.77
2019-04-28T20:06:03.064Z,2.75
2019-04-28T20:08:32.422Z,3.12
2019-04-28T20:11:01.801Z,2.77
2019-04-28T20:13:31.587Z,2.85
2019-04-28T20:16:01.297Z,2.67
2019-04-28T20:18:30.762Z,2.80
2019-04-28T20:21:00.205Z,3.30
2019-04-28T20:23:29.627Z,3.10
2019-04-28T20:25:59.204Z,3.08
2019-04-28T20:28:28.563Z,3.10
2019-04-28T20:30:57.998Z,3.37
2019-04-28T20:33:27.480Z,3.30
2019-04-28T20:35:58.463Z,3.00
2019-04-28T20:38:29.593Z,2.90
2019-04-28T20:41:03.545Z,2.92
2019-04-28T20:43:32.921Z,3.37
2019-04-28T20:46:02.275Z,3.50
2019-04-28T20:48:31.675Z,3.92
2019-04-28T20:51:01.086Z,3.90
2019-04-28T20:53:30.522Z,4.80
2019-04-28T20:55:59.919Z,4.30
2019-04-28T20:58:29.263Z,3.70
2019-04-28T21:00:58.740Z,3.40
2019-04-28T21:03:28.127Z,3.20
2019-04-28T21:05:57.502Z,4.00
2019-04-28T21:08:26.854Z,3.95
2019-04-28T21:10:56.316Z,3.58
2019-04-28T21:13:25.713Z,4.03
2019-04-28T21:15:55.114Z,4.10
2019-04-28T21:18:24.540Z,3.70
2019-04-28T21:20:53.951Z,3.92
2019-04-28T21:23:23.409Z,4.05
2019-04-28T21:25:52.903Z,3.98
2019-04-28T21:28:22.250Z,4.22
2019-04-28T21:30:51.723Z,3.90
2019-04-28T21:33:21.124Z,3.80
2019-04-28T21:35:50.475Z,4.15
2019-04-28T21:38:19.844Z,4.03
2019-04-28T21:40:49.253Z,4.10
2019-04-28T21:43:23.431Z,3.47
2019-04-28T21:46:00.304Z,3.60
2019-04-28T21:48:34.496Z,3.70
2019-04-28T21:51:03.923Z,3.45
2019-04-28T21:56:02.310Z,3.50
2019-04-28T21:58:33.264Z,3.95
2019-04-28T22:01:03.283Z,3.52
2019-04-28T22:03:32.639Z,3.65
2019-04-28T22:06:02.079Z,2.95
2019-04-28T22:08:31.517Z,3.10
2019-04-28T22:11:01.013Z,3.22
2019-04-28T22:13:30.345Z,3.02
2019-04-28T22:15:59.728Z,2.95
2019-04-28T22:18:29.406Z,3.60
2019-04-28T22:20:58.796Z,3.62
2019-04-28T22:23:38.887Z,2.85
2019-04-28T22:26:09.332Z,3.10
2019-04-28T22:28:38.796Z,3.20
2019-04-28T22:31:08.274Z,3.12
2019-04-28T22:33:37.643Z,3.17
2019-04-28T22:36:07.074Z,2.98
2019-04-28T22:38:36.426Z,3.27
2019-04-28T22:41:05.783Z,3.42
2019-04-28T22:43:35.235Z,3.75
2019-04-28T22:46:04.574Z,3.47
2019-04-28T22:48:33.998Z,3.33
2019-04-28T22:51:03.361Z,3.52
2019-04-28T22:53:34.339Z,3.62
2019-04-28T22:56:11.358Z,4.28
2019-04-28T22:58:48.118Z,3.70
2019-04-28T23:01:28.248Z,3.20
2019-04-28T23:04:01.931Z,3.47
2019-04-28T23:06:31.301Z,3.10
2019-04-28T23:09:00.709Z,3.25
2019-04-28T23:11:30.163Z,2.90
2019-04-28T23:13:59.513Z,3.30
2019-04-28T23:16:28.967Z,3.52
2019-04-28T23:18:59.240Z,3.50
2019-04-28T23:21:30.250Z,3.20
2019-04-28T23:23:59.584Z,3.45
2019-04-28T23:26:29.003Z,4.05
2019-04-28T23:28:58.560Z,4.08
2019-04-28T23:31:28.003Z,3.55
2019-04-28T23:33:57.342Z,3.67
2019-04-28T23:36:26.737Z,3.45
2019-04-28T23:38:56.078Z,4.08
2019-04-28T23:41:33.180Z,4.28
2019-04-28T23:44:02.603Z,4.60
2019-04-28T23:46:49.755Z,4.00
2019-04-28T23:49:19.159Z,4.28
2019-04-28T23:51:50.142Z,4.15
2019-04-28T23:54:19.510Z,4.33
2019-04-28T23:56:48.895Z,4.72
2019-04-28T23:59:18.315Z,4.75
